createdAt,value
2023-02-03T00:01:59.177Z,1.81
2023-02-03T00:04:28.441Z,1.70
2023-02-03T00:06:55.374Z,1.70
2023-02-03T00:09:22.260Z,1.68
2023-02-03T00:11:49.429Z,1.63
2023-02-03T00:14:16.325Z,1.55
2023-02-03T00:16:43.135Z,1.55
2023-02-03T00:19:09.973Z,1.58
2023-02-03T00:21:36.797Z,1.58
2023-02-03T00:24:03.815Z,1.59
2023-02-03T00:26:40.682Z,1.50
2023-02-03T00:29:07.862Z,1.53
2023-02-03T00:31:37.355Z,1.53
2023-02-03T00:34:10.908Z,1.48
2023-02-03T00:36:38.086Z,1.54
2023-02-03T00:39:04.961Z,1.56
2023-02-03T00:41:33.196Z,1.62
2023-02-03T00:43:59.988Z,1.61
2023-02-03T00:46:26.727Z,1.60
2023-02-03T00:48:53.878Z,1.56
2023-02-03T00:51:21.576Z,1.59
2023-02-03T00:53:49.113Z,1.60
2023-02-03T00:56:15.874Z,1.66
2023-02-03T00:58:42.760Z,1.70
2023-02-03T01:01:09.536Z,1.64
2023-02-03T01:03:36.336Z,1.62
2023-02-03T01:06:16.944Z,1.65
2023-02-03T01:08:44.477Z,1.61
2023-02-03T01:11:19.778Z,1.63
2023-02-03T01:13:50.450Z,1.62
2023-02-03T01:16:19.677Z,1.70
2023-02-03T01:18:46.936Z,1.71
2023-02-03T01:21:27.793Z,1.69
2023-02-03T01:23:55.667Z,1.70
2023-02-03T01:26:23.944Z,1.67
2023-02-03T01:29:00.635Z,1.72
2023-02-03T01:31:31.779Z,1.75
2023-02-03T01:33:59.192Z,1.74
2023-02-03T01:36:27.266Z,1.70
2023-02-03T01:38:54.345Z,1.75
2023-02-03T01:41:24.893Z,1.78
2023-02-03T01:43:53.934Z,1.76
2023-02-03T01:46:39.480Z,1.77
2023-02-03T01:49:28.069Z,1.77
2023-02-03T01:51:55.145Z,1.77
2023-02-03T01:54:31.257Z,1.77
2023-02-03T01:57:04.426Z,1.74
2023-02-03T01:59:32.422Z,1.77
2023-02-03T02:02:04.514Z,1.70
2023-02-03T02:04:46.913Z,1.71
2023-02-03T02:07:14.679Z,1.69
2023-02-03T02:09:41.594Z,1.67
2023-02-03T02:12:11.349Z,1.61
2023-02-03T02:14:39.348Z,1.61
2023-02-03T02:17:13.722Z,1.58
2023-02-03T02:20:25.817Z,1.61
2023-02-03T02:22:58.731Z,1.59
2023-02-03T02:25:48.976Z,1.56
2023-02-03T02:28:38.501Z,1.54
2023-02-03T02:31:38.196Z,1.50
2023-02-03T02:34:23.388Z,1.47
2023-02-03T02:37:06.571Z,1.46
2023-02-03T02:39:45.709Z,1.45
2023-02-03T02:42:34.231Z,1.45
2023-02-03T02:45:17.979Z,1.43
2023-02-03T02:47:45.362Z,1.47
2023-02-03T02:50:24.995Z,1.40
2023-02-03T02:52:53.304Z,1.43
2023-02-03T02:55:28.039Z,1.40
2023-02-03T02:58:04.258Z,1.36
2023-02-03T03:00:32.251Z,1.27
2023-02-03T03:03:27.886Z,1.23
2023-02-03T03:05:58.038Z,1.24
2023-02-03T03:08:57.206Z,1.23
2023-02-03T03:11:26.661Z,1.25
2023-02-03T03:13:56.072Z,1.23
2023-02-03T03:16:27.956Z,1.21
2023-02-03T03:19:21.841Z,1.23
2023-02-03T03:22:01.683Z,1.19
2023-02-03T03:24:32.013Z,1.17
2023-02-03T03:27:09.373Z,1.12
2023-02-03T03:29:55.420Z,1.18
2023-02-03T03:32:22.502Z,1.17
2023-02-03T03:34:49.433Z,1.18
2023-02-03T03:37:33.003Z,1.16
2023-02-03T03:40:01.622Z,1.18
2023-02-03T03:42:39.993Z,1.18
2023-02-03T03:45:11.688Z,1.16
2023-02-03T03:47:48.885Z,1.21
2023-02-03T03:50:19.554Z,1.21
2023-02-03T03:52:46.873Z,1.27
2023-02-03T03:55:14.960Z,1.32
2023-02-03T03:57:45.938Z,1.34
2023-02-03T04:00:15.726Z,1.35
2023-02-03T04:02:43.689Z,1.38
2023-02-03T04:05:11.349Z,1.47
2023-02-03T04:07:39.980Z,1.49
2023-02-03T04:10:21.139Z,1.44
2023-02-03T04:12:47.932Z,1.50
2023-02-03T04:15:14.720Z,1.58
2023-02-03T04:17:42.093Z,1.57
2023-02-03T04:20:09.840Z,1.61
2023-02-03T04:22:36.515Z,1.77
2023-02-03T04:25:03.468Z,1.87
2023-02-03T04:27:34.363Z,1.79
2023-02-03T04:30:01.678Z,1.82
2023-02-03T04:32:32.161Z,1.84
2023-02-03T04:34:58.884Z,1.87
2023-02-03T04:37:26.998Z,1.93
2023-02-03T04:39:55.477Z,1.92
2023-02-03T04:42:22.819Z,1.90
2023-02-03T04:44:49.722Z,1.92
2023-02-03T04:47:17.101Z,1.96
2023-02-03T04:49:44.241Z,1.99
2023-02-03T04:52:11.600Z,1.98
2023-02-03T04:54:38.324Z,2.00
2023-02-03T04:57:05.767Z,2.05
2023-02-03T04:59:32.581Z,2.11
2023-02-03T05:02:02.372Z,2.14
2023-02-03T05:04:29.084Z,2.20
2023-02-03T05:06:56.885Z,2.26
2023-02-03T05:09:24.771Z,2.31
2023-02-03T05:11:51.614Z,2.36
2023-02-03T05:14:18.783Z,2.37
2023-02-03T05:16:46.467Z,2.33
2023-02-03T05:19:13.461Z,2.46
2023-02-03T05:21:40.309Z,2.48
2023-02-03T05:24:08.175Z,2.44
2023-02-03T05:26:39.203Z,2.49
2023-02-03T05:29:06.321Z,2.53
2023-02-03T05:31:33.869Z,2.57
2023-02-03T05:34:00.734Z,2.65
2023-02-03T05:36:27.447Z,2.72
2023-02-03T05:38:54.260Z,2.81
2023-02-03T05:41:39.761Z,2.89
2023-02-03T05:44:06.754Z,2.98
2023-02-03T05:46:33.478Z,3.06
2023-02-03T05:49:00.316Z,3.12
2023-02-03T05:51:27.243Z,3.19
2023-02-03T05:53:53.947Z,3.22
2023-02-03T05:56:20.778Z,3.29
2023-02-03T05:58:47.517Z,3.36
2023-02-03T06:01:14.288Z,3.47
2023-02-03T06:03:41.797Z,3.45
2023-02-03T06:06:09.489Z,3.54
2023-02-03T06:08:36.265Z,3.60
2023-02-03T06:11:03.232Z,3.68
2023-02-03T06:13:33.314Z,3.71
2023-02-03T06:16:00.127Z,3.73
2023-02-03T06:18:27.188Z,3.78
2023-02-03T06:20:53.941Z,3.86
2023-02-03T06:23:20.753Z,3.95
2023-02-03T06:25:51.351Z,3.99
2023-02-03T06:28:18.730Z,4.09
2023-02-03T06:30:45.661Z,4.15
2023-02-03T06:33:12.488Z,4.19
2023-02-03T06:35:39.273Z,4.25
2023-02-03T06:38:08.596Z,4.29
2023-02-03T06:40:35.426Z,4.28
2023-02-03T06:43:04.523Z,4.32
2023-02-03T06:45:31.353Z,4.39
2023-02-03T06:47:58.047Z,4.38
2023-02-03T06:50:25.273Z,4.46
2023-02-03T06:52:52.227Z,4.43
2023-02-03T06:55:19.033Z,4.49
2023-02-03T06:57:47.356Z,4.54
2023-02-03T07:00:18.625Z,4.60
2023-02-03T07:02:46.509Z,4.60
2023-02-03T07:05:13.275Z,4.62
2023-02-03T07:07:40.291Z,4.66
2023-02-03T07:10:07.561Z,4.71
2023-02-03T07:12:34.346Z,4.73
2023-02-03T07:15:01.270Z,4.71
2023-02-03T07:17:28.012Z,4.76
2023-02-03T07:19:54.740Z,4.77
2023-02-03T07:22:21.496Z,4.73
2023-02-03T07:24:48.226Z,4.82
2023-02-03T07:27:15.282Z,4.87
2023-02-03T07:29:41.987Z,4.85
2023-02-03T07:32:08.981Z,4.91
2023-02-03T07:34:35.772Z,4.92
2023-02-03T07:37:02.579Z,4.97
2023-02-03T07:39:33.196Z,4.94
2023-02-03T07:41:59.971Z,5.04
2023-02-03T07:44:28.834Z,5.09
2023-02-03T07:46:55.728Z,5.13
2023-02-03T07:49:22.449Z,5.13
2023-02-03T07:51:49.194Z,5.13
2023-02-03T07:54:16.041Z,5.19
2023-02-03T07:56:43.444Z,5.16
2023-02-03T07:59:10.240Z,5.22
2023-02-03T08:01:37.047Z,5.23
2023-02-03T08:04:05.495Z,5.27
2023-02-03T08:06:32.305Z,5.30
2023-02-03T08:08:59.049Z,5.32
2023-02-03T08:11:25.824Z,5.32
2023-02-03T08:13:52.902Z,5.34
2023-02-03T08:16:19.693Z,5.39
2023-02-03T08:18:46.472Z,5.33
2023-02-03T08:21:15.519Z,5.36
2023-02-03T08:23:42.362Z,5.38
2023-02-03T08:26:09.091Z,5.39
2023-02-03T08:28:35.862Z,5.41
2023-02-03T08:31:02.759Z,5.39
2023-02-03T08:33:29.689Z,5.39
2023-02-03T08:35:57.213Z,5.40
2023-02-03T08:38:24.618Z,5.39
2023-02-03T08:40:51.601Z,5.43
2023-02-03T08:43:18.798Z,5.45
2023-02-03T08:45:45.940Z,5.45
2023-02-03T08:48:12.917Z,5.43
2023-02-03T08:50:42.800Z,5.46
2023-02-03T08:53:10.585Z,5.41
2023-02-03T08:55:40.729Z,5.45
2023-02-03T08:58:07.548Z,5.45
2023-02-03T09:00:34.400Z,5.48
2023-02-03T09:03:01.712Z,5.50
2023-02-03T09:05:30.639Z,5.51
2023-02-03T09:07:57.563Z,5.50
2023-02-03T09:10:24.857Z,5.50
2023-02-03T09:12:51.839Z,5.51
2023-02-03T09:15:18.783Z,5.49
2023-02-03T09:17:45.910Z,5.55
2023-02-03T09:20:15.224Z,5.49
2023-02-03T09:22:42.126Z,5.51
2023-02-03T09:25:09.299Z,5.52
2023-02-03T09:27:36.178Z,5.57
2023-02-03T09:30:03.680Z,5.59
2023-02-03T09:32:30.571Z,5.61
2023-02-03T09:34:57.589Z,5.66
2023-02-03T09:37:24.519Z,5.73
2023-02-03T09:39:51.617Z,5.70
2023-02-03T09:42:37.557Z,5.72
2023-02-03T09:45:26.988Z,5.71
2023-02-03T09:47:55.657Z,5.73
2023-02-03T09:50:28.869Z,5.80
2023-02-03T09:52:56.708Z,5.78
2023-02-03T09:55:40.080Z,5.81
2023-02-03T09:58:14.566Z,5.88
2023-02-03T10:00:45.171Z,5.91
2023-02-03T10:03:33.893Z,5.92
2023-02-03T10:06:28.391Z,5.94
2023-02-03T10:09:12.134Z,6.01
2023-02-03T10:12:14.628Z,6.05
2023-02-03T10:14:56.767Z,6.10
2023-02-03T10:17:40.068Z,6.12
2023-02-03T10:20:16.314Z,6.16
2023-02-03T10:22:46.561Z,6.21
2023-02-03T10:25:25.044Z,6.22
2023-02-03T10:27:56.248Z,6.24
2023-02-03T10:30:28.948Z,6.16
2023-02-03T10:32:58.505Z,6.18
2023-02-03T10:35:33.440Z,6.14
2023-02-03T10:38:00.820Z,6.02
2023-02-03T10:40:29.623Z,5.71
2023-02-03T10:43:15.568Z,5.46
2023-02-03T10:45:42.387Z,5.28
2023-02-03T10:48:15.825Z,5.15
2023-02-03T10:50:46.096Z,5.15
2023-02-03T10:53:18.980Z,5.11
2023-02-03T10:55:48.129Z,5.16
2023-02-03T10:58:17.662Z,5.24
2023-02-03T11:00:44.620Z,5.21
2023-02-03T11:03:11.267Z,5.22
2023-02-03T11:05:37.963Z,5.23
2023-02-03T11:08:05.092Z,5.25
2023-02-03T11:10:36.247Z,5.28
2023-02-03T11:13:15.601Z,5.28
2023-02-03T11:15:53.817Z,5.25
2023-02-03T11:18:36.184Z,5.23
2023-02-03T11:21:07.864Z,5.20
2023-02-03T11:23:34.733Z,5.20
2023-02-03T11:26:11.343Z,5.27
2023-02-03T11:28:43.275Z,5.31
2023-02-03T11:31:36.920Z,5.42
2023-02-03T11:34:06.857Z,5.60
2023-02-03T11:36:35.169Z,5.72
2023-02-03T11:39:18.244Z,5.90
2023-02-03T11:41:45.413Z,5.94
2023-02-03T11:44:29.322Z,6.01
2023-02-03T11:47:09.033Z,6.01
2023-02-03T11:49:58.825Z,6.05
2023-02-03T11:52:38.998Z,6.13
2023-02-03T11:55:27.445Z,6.24
2023-02-03T11:58:11.119Z,6.34
2023-02-03T12:01:15.443Z,6.45
2023-02-03T12:04:15.599Z,6.63
2023-02-03T12:07:02.014Z,6.71
2023-02-03T12:09:43.755Z,6.68
2023-02-03T12:12:38.828Z,6.65
2023-02-03T12:15:43.670Z,6.66
2023-02-03T12:18:30.417Z,6.74
2023-02-03T12:21:14.837Z,6.78
2023-02-03T12:23:56.835Z,6.89
2023-02-03T12:26:32.836Z,6.85
2023-02-03T12:29:19.583Z,6.82
2023-02-03T12:32:27.890Z,6.70
2023-02-03T12:35:24.362Z,6.54
2023-02-03T12:38:03.816Z,6.36
2023-02-03T12:40:39.274Z,4.52
2023-02-03T12:43:18.168Z,2.78
2023-02-03T12:45:58.478Z,2.38
2023-02-03T12:48:30.821Z,2.28
2023-02-03T12:51:01.698Z,2.33
2023-02-03T12:53:32.350Z,2.42
2023-02-03T12:56:04.406Z,2.42
2023-02-03T12:58:38.370Z,2.47
2023-02-03T13:01:06.675Z,2.51
2023-02-03T13:03:50.811Z,2.59
2023-02-03T13:06:27.816Z,2.73
2023-02-03T13:09:12.684Z,2.93
2023-02-03T13:11:48.597Z,3.08
2023-02-03T13:14:33.402Z,3.30
2023-02-03T13:17:10.082Z,3.44
2023-02-03T13:19:46.848Z,3.50
2023-02-03T13:22:15.229Z,3.54
2023-02-03T13:24:46.180Z,3.58
2023-02-03T13:27:38.080Z,3.61
2023-02-03T13:30:20.403Z,3.66
2023-02-03T13:33:11.791Z,3.71
2023-02-03T13:35:54.121Z,3.77
2023-02-03T13:38:45.778Z,3.83
2023-02-03T13:41:24.452Z,3.90
2023-02-03T13:43:52.259Z,4.13
2023-02-03T13:46:25.354Z,4.27
2023-02-03T13:48:52.702Z,4.32
2023-02-03T13:51:29.969Z,4.53
2023-02-03T13:54:03.433Z,4.62
2023-02-03T13:56:31.269Z,4.75
2023-02-03T13:59:02.990Z,4.75
2023-02-03T14:01:33.453Z,4.83
2023-02-03T14:04:01.185Z,5.03
2023-02-03T14:06:37.246Z,4.99
2023-02-03T14:09:19.430Z,4.93
2023-02-03T14:11:47.521Z,4.92
2023-02-03T14:14:14.204Z,4.89
2023-02-03T14:16:54.835Z,4.90
2023-02-03T14:19:24.005Z,4.92
2023-02-03T14:22:16.435Z,4.91
2023-02-03T14:24:47.175Z,4.97
2023-02-03T14:27:23.900Z,5.01
2023-02-03T14:30:14.856Z,5.03
2023-02-03T14:33:21.840Z,5.03
2023-02-03T14:35:49.431Z,4.97
2023-02-03T14:38:16.237Z,4.96
2023-02-03T14:41:01.555Z,4.94
2023-02-03T14:43:50.147Z,4.99
2023-02-03T14:46:31.330Z,5.01
2023-02-03T14:49:20.166Z,5.05
2023-02-03T14:52:04.489Z,5.10
2023-02-03T14:55:00.988Z,5.10
2023-02-03T14:57:49.582Z,5.11
2023-02-03T15:00:19.402Z,5.13
2023-02-03T15:03:12.858Z,4.99
2023-02-03T15:05:47.539Z,4.73
2023-02-03T15:08:36.335Z,4.64
2023-02-03T15:11:30.316Z,4.60
2023-02-03T15:14:16.137Z,4.64
2023-02-03T15:16:44.357Z,4.62
2023-02-03T15:19:18.589Z,4.58
2023-02-03T15:21:45.301Z,4.54
2023-02-03T15:24:23.179Z,4.51
2023-02-03T15:26:56.805Z,4.49
2023-02-03T15:29:34.521Z,4.51
2023-02-03T15:32:13.034Z,4.48
2023-02-03T15:34:43.751Z,4.49
2023-02-03T15:37:17.940Z,4.49
2023-02-03T15:39:59.772Z,4.50
2023-02-03T15:42:37.635Z,4.57
2023-02-03T15:45:18.405Z,4.62
2023-02-03T15:47:49.162Z,4.61
2023-02-03T15:50:25.466Z,4.59
2023-02-03T15:52:54.713Z,4.60
2023-02-03T15:55:38.150Z,4.62
2023-02-03T15:58:05.507Z,4.62
2023-02-03T16:00:38.596Z,4.59
2023-02-03T16:03:14.112Z,4.58
2023-02-03T16:05:42.597Z,4.62
2023-02-03T16:08:35.512Z,4.64
2023-02-03T16:11:20.648Z,4.66
2023-02-03T16:13:47.602Z,4.65
2023-02-03T16:16:18.575Z,4.63
2023-02-03T16:18:54.711Z,4.68
2023-02-03T16:21:29.619Z,4.67
2023-02-03T16:23:57.817Z,4.70
2023-02-03T16:26:26.468Z,4.65
2023-02-03T16:29:30.110Z,4.64
2023-02-03T16:32:15.845Z,4.66
2023-02-03T16:35:01.404Z,4.66
2023-02-03T16:37:52.486Z,4.67
2023-02-03T16:40:40.561Z,4.70
2023-02-03T16:43:33.716Z,4.64
2023-02-03T16:46:20.003Z,4.67
2023-02-03T16:49:05.714Z,4.69
2023-02-03T16:51:39.262Z,4.66
2023-02-03T16:54:07.051Z,4.70
2023-02-03T16:56:36.459Z,4.69
2023-02-03T16:59:05.666Z,4.69
2023-02-03T17:01:33.045Z,4.70
2023-02-03T17:04:02.699Z,4.72
2023-02-03T17:06:32.914Z,4.74
2023-02-03T17:09:09.320Z,4.78
2023-02-03T17:11:36.188Z,4.72
2023-02-03T17:14:03.656Z,4.72
2023-02-03T17:16:31.411Z,4.75
2023-02-03T17:19:00.895Z,4.78
2023-02-03T17:21:29.333Z,4.77
2023-02-03T17:23:58.015Z,4.77
2023-02-03T17:26:24.931Z,4.80
2023-02-03T17:28:56.909Z,4.82
2023-02-03T17:31:23.939Z,4.77
2023-02-03T17:34:03.701Z,4.78
2023-02-03T17:36:35.229Z,4.78
2023-02-03T17:55:08.702Z,4.87
2023-02-03T17:57:37.573Z,4.88
2023-02-03T18:00:05.419Z,4.90
2023-02-03T18:02:43.223Z,4.89
2023-02-03T18:05:10.671Z,4.92
2023-02-03T18:07:40.165Z,4.89
2023-02-03T18:10:07.054Z,4.92
2023-02-03T18:12:33.851Z,4.90
2023-02-03T18:15:00.485Z,4.87
2023-02-03T18:17:27.287Z,4.86
2023-02-03T18:19:56.619Z,4.89
2023-02-03T18:22:23.484Z,4.90
2023-02-03T18:24:53.817Z,4.89
2023-02-03T18:27:20.551Z,4.86
2023-02-03T18:29:48.393Z,4.89
2023-02-03T18:32:16.186Z,4.90
2023-02-03T18:34:43.636Z,4.90
2023-02-03T18:37:10.699Z,4.88
2023-02-03T18:39:37.481Z,4.90
2023-02-03T18:42:04.803Z,4.87
2023-02-03T18:44:32.025Z,4.86
2023-02-03T18:47:07.005Z,4.86
2023-02-03T18:49:37.274Z,4.84
2023-02-03T18:52:04.976Z,4.86
2023-02-03T18:54:32.147Z,4.80
2023-02-03T18:56:59.124Z,4.84
2023-02-03T18:59:26.410Z,4.82
2023-02-03T19:01:53.267Z,4.84
2023-02-03T19:04:20.547Z,4.79
2023-02-03T19:06:47.756Z,4.79
2023-02-03T19:09:19.451Z,4.78
2023-02-03T19:11:46.315Z,4.75
2023-02-03T19:14:14.297Z,4.74
2023-02-03T19:16:41.119Z,4.73
2023-02-03T19:19:08.390Z,4.67
2023-02-03T19:21:35.225Z,4.71
2023-02-03T19:24:02.083Z,4.65
2023-02-03T19:26:28.909Z,4.68
2023-02-03T19:28:56.475Z,4.64
2023-02-03T19:31:23.725Z,4.59
2023-02-03T19:33:50.836Z,4.52
2023-02-03T19:36:17.840Z,4.54
2023-02-03T19:38:44.659Z,4.50
2023-02-03T19:41:11.926Z,4.53
2023-02-03T19:43:40.340Z,4.43
2023-02-03T19:46:11.495Z,4.40
2023-02-03T19:48:41.825Z,4.35
2023-02-03T19:51:10.748Z,4.34
2023-02-03T19:53:38.068Z,4.29
2023-02-03T19:56:05.551Z,4.31
2023-02-03T19:58:42.565Z,4.26
2023-02-03T20:01:10.837Z,4.23
2023-02-03T20:03:37.728Z,4.32
2023-02-03T20:06:06.906Z,4.33
2023-02-03T20:08:33.683Z,4.34
2023-02-03T20:11:03.435Z,4.40
2023-02-03T20:13:30.399Z,4.40
2023-02-03T20:15:57.261Z,4.38
2023-02-03T20:18:24.223Z,4.43
2023-02-03T20:20:52.049Z,4.41
2023-02-03T20:23:18.796Z,4.43
2023-02-03T20:25:49.257Z,4.44
2023-02-03T20:28:17.269Z,4.40
2023-02-03T20:30:47.156Z,4.40
2023-02-03T20:33:13.969Z,4.38
2023-02-03T20:35:40.736Z,4.33
2023-02-03T20:38:07.677Z,4.30
2023-02-03T20:40:34.424Z,4.31
2023-02-03T20:43:06.139Z,4.23
2023-02-03T20:45:36.340Z,4.11
2023-02-03T20:48:08.661Z,4.08
2023-02-03T20:50:42.257Z,4.04
2023-02-03T20:53:28.003Z,4.03
2023-02-03T20:56:01.757Z,4.07
2023-02-03T20:58:31.680Z,3.94
2023-02-03T21:00:58.679Z,3.84
2023-02-03T21:03:44.831Z,3.48
2023-02-03T21:06:13.095Z,3.27
2023-02-03T21:08:46.746Z,3.11
2023-02-03T21:11:18.749Z,3.02
2023-02-03T21:13:50.139Z,2.91
2023-02-03T21:16:19.616Z,2.84
2023-02-03T21:18:53.101Z,2.77
2023-02-03T21:21:38.183Z,2.59
2023-02-03T21:26:57.892Z,2.48
2023-02-03T21:29:36.440Z,2.37
2023-02-03T21:32:04.267Z,2.33
2023-02-03T21:34:35.406Z,2.32
2023-02-03T21:37:12.849Z,2.36
2023-02-03T21:39:40.654Z,2.37
2023-02-03T21:42:43.583Z,2.25
2023-02-03T21:45:22.619Z,2.24
2023-02-03T21:47:50.697Z,2.15
2023-02-03T21:50:28.231Z,2.18
2023-02-03T21:52:58.495Z,2.14
2023-02-03T21:55:25.269Z,2.11
2023-02-03T21:57:54.331Z,2.10
2023-02-03T22:00:43.515Z,2.06
2023-02-03T22:03:20.698Z,2.06
2023-02-03T22:05:47.933Z,2.17
2023-02-03T22:08:18.795Z,2.09
2023-02-03T22:10:45.806Z,2.10
2023-02-03T22:13:16.460Z,2.07
2023-02-03T22:15:45.969Z,2.10
2023-02-03T22:18:12.701Z,2.09
2023-02-03T22:20:39.561Z,2.07
2023-02-03T22:23:06.395Z,2.11
2023-02-03T22:25:33.298Z,2.10
2023-02-03T22:28:02.607Z,2.02
2023-02-03T22:30:29.774Z,1.98
2023-02-03T22:32:58.136Z,2.07
2023-02-03T22:35:25.977Z,2.06
2023-02-03T22:37:53.985Z,2.08
2023-02-03T22:40:21.662Z,2.10
2023-02-03T22:42:48.665Z,2.10
2023-02-03T22:45:16.048Z,2.10
2023-02-03T22:47:42.861Z,2.09
2023-02-03T22:50:11.254Z,2.11
2023-02-03T22:52:38.249Z,1.99
2023-02-03T22:55:05.778Z,1.95
2023-02-03T22:57:32.594Z,1.88
2023-02-03T22:59:59.422Z,1.83
2023-02-03T23:02:26.222Z,1.83
2023-02-03T23:04:53.159Z,1.79
2023-02-03T23:07:22.693Z,1.83
2023-02-03T23:09:52.397Z,1.82
2023-02-03T23:12:19.159Z,1.80
2023-02-03T23:14:45.966Z,1.74
2023-02-03T23:17:12.776Z,1.61
2023-02-03T23:19:39.527Z,1.64
2023-02-03T23:22:06.302Z,1.62
2023-02-03T23:24:37.134Z,1.57
2023-02-03T23:27:04.315Z,1.60
2023-02-03T23:29:33.103Z,1.59
2023-02-03T23:32:00.461Z,1.68
2023-02-03T23:34:45.940Z,1.67
2023-02-03T23:37:12.693Z,1.64
2023-02-03T23:39:39.449Z,1.66
2023-02-03T23:42:06.149Z,1.71
2023-02-03T23:44:33.170Z,1.75
2023-02-03T23:46:59.955Z,1.75
2023-02-03T23:49:28.210Z,1.72
2023-02-03T23:51:57.675Z,1.72
2023-02-03T23:54:24.763Z,1.67
2023-02-03T23:56:53.975Z,1.67
2023-02-03T23:59:20.686Z,1.70
